createdAt,value
2023-02-21T00:03:09.723Z,29.02
2023-02-21T00:06:30.230Z,31.85
2023-02-21T00:09:50.556Z,34.28
2023-02-21T00:13:29.660Z,34.25
2023-02-21T00:17:14.483Z,31.33
2023-02-21T00:20:34.746Z,27.30
2023-02-21T00:23:55.804Z,31.10
2023-02-21T00:30:36.776Z,26.30
2023-02-21T00:33:57.118Z,30.52
2023-02-21T00:37:17.452Z,30.73
2023-02-21T00:40:37.885Z,32.75
2023-02-21T00:43:59.202Z,33.03
2023-02-21T00:47:19.935Z,29.90
2023-02-21T00:50:40.368Z,32.53
2023-02-21T00:54:00.353Z,34.53
2023-02-21T00:57:20.527Z,40.40
2023-02-21T01:00:42.973Z,35.65
2023-02-21T01:04:03.138Z,39.80
2023-02-21T01:07:23.603Z,37.63
2023-02-21T01:10:44.094Z,38.63
2023-02-21T01:14:04.625Z,38.28
2023-02-21T01:20:45.466Z,33.97
2023-02-21T01:24:06.467Z,32.40
2023-02-21T01:27:26.864Z,31.98
2023-02-21T01:30:47.201Z,29.70
2023-02-21T01:34:07.873Z,31.50
2023-02-21T01:37:28.033Z,31.23
2023-02-21T01:40:51.365Z,30.50
2023-02-21T01:44:20.932Z,29.00
2023-02-21T01:47:41.936Z,28.92
2023-02-21T01:54:24.369Z,33.10
2023-02-21T01:57:44.587Z,33.70
2023-02-21T02:01:04.845Z,35.83
2023-02-21T02:04:25.500Z,36.30
2023-02-21T02:11:13.748Z,37.70
2023-02-21T02:15:03.362Z,33.55
2023-02-21T02:18:32.460Z,41.40
2023-02-21T02:22:11.489Z,34.63
2023-02-21T02:25:52.851Z,36.20
2023-02-21T02:29:00.098Z,37.03
2023-02-21T02:32:23.326Z,35.13
2023-02-21T02:35:29.019Z,35.80
2023-02-21T02:38:34.598Z,37.33
2023-02-21T02:41:42.274Z,31.13
2023-02-21T02:44:55.708Z,32.78
2023-02-21T02:48:03.621Z,34.97
2023-02-21T02:51:16.285Z,35.33
2023-02-21T02:54:19.618Z,36.70
2023-02-21T02:57:21.467Z,31.58
2023-02-21T03:00:23.806Z,35.88
2023-02-21T03:04:00.384Z,34.90
2023-02-21T03:07:08.880Z,34.92
2023-02-21T03:10:28.092Z,38.42
2023-02-21T03:13:56.290Z,39.75
2023-02-21T03:17:03.680Z,35.33
2023-02-21T03:20:09.816Z,34.53
2023-02-21T03:23:15.697Z,35.45
2023-02-21T03:26:18.472Z,35.08
2023-02-21T03:29:24.435Z,36.88
2023-02-21T03:32:34.558Z,37.47
2023-02-21T03:38:39.533Z,35.25
2023-02-21T03:41:41.279Z,37.72
2023-02-21T03:44:43.082Z,35.53
2023-02-21T03:47:44.885Z,37.72
2023-02-21T03:50:46.888Z,36.33
2023-02-21T03:53:50.820Z,36.13
2023-02-21T03:56:55.114Z,36.80
2023-02-21T04:00:01.012Z,37.65
2023-02-21T04:03:03.283Z,40.38
2023-02-21T04:06:16.917Z,39.35
2023-02-21T04:09:18.629Z,40.97
2023-02-21T04:12:20.476Z,37.53
2023-02-21T04:15:22.832Z,40.80
2023-02-21T04:18:24.433Z,39.20
2023-02-21T04:21:28.064Z,38.80
2023-02-21T04:24:31.611Z,42.70
2023-02-21T04:27:37.636Z,36.67
2023-02-21T04:30:39.928Z,39.25
2023-02-21T04:33:41.760Z,37.50
2023-02-21T04:36:45.192Z,39.10
2023-02-21T04:39:46.905Z,37.67
2023-02-21T04:42:50.885Z,38.13
2023-02-21T04:45:53.178Z,37.17
2023-02-21T04:48:55.162Z,34.70
2023-02-21T04:51:57.111Z,36.95
2023-02-21T04:54:58.850Z,33.67
2023-02-21T04:58:00.488Z,39.53
2023-02-21T05:01:02.404Z,34.38
2023-02-21T05:04:04.533Z,30.23
2023-02-21T05:07:06.223Z,32.78
2023-02-21T05:10:09.739Z,32.88
2023-02-21T05:13:11.452Z,29.55
2023-02-21T05:16:14.138Z,29.65
2023-02-21T05:19:27.795Z,28.70
2023-02-21T05:22:29.644Z,34.30
2023-02-21T05:25:31.231Z,27.30
2023-02-21T05:28:33.333Z,30.85
2023-02-21T05:31:35.233Z,28.05
2023-02-21T05:34:37.837Z,27.17
2023-02-21T05:37:39.806Z,25.75
2023-02-21T05:40:41.674Z,30.77
2023-02-21T05:43:47.798Z,28.63
2023-02-21T05:46:49.719Z,25.58
2023-02-21T05:49:51.275Z,28.83
2023-02-21T05:52:53.778Z,27.05
2023-02-21T05:55:55.356Z,27.63
2023-02-21T05:58:57.188Z,29.83
2023-02-21T06:01:59.150Z,29.92
2023-02-21T06:05:00.980Z,25.88
2023-02-21T06:08:02.482Z,29.42
2023-02-21T06:11:04.399Z,28.85
2023-02-21T06:14:13.099Z,29.35
2023-02-21T06:17:15.071Z,32.10
2023-02-21T06:20:16.991Z,27.58
2023-02-21T06:23:18.867Z,29.60
2023-02-21T06:26:21.505Z,29.33
2023-02-21T06:29:23.143Z,29.83
2023-02-21T06:32:24.875Z,27.48
2023-02-21T06:35:26.685Z,29.95
2023-02-21T06:38:28.498Z,27.25
2023-02-21T06:41:31.624Z,30.90
2023-02-21T06:44:33.544Z,28.50
2023-02-21T06:47:35.497Z,29.70
2023-02-21T06:50:37.280Z,29.85
2023-02-21T06:53:42.966Z,31.38
2023-02-21T06:56:44.957Z,31.50
2023-02-21T06:59:46.810Z,29.45
2023-02-21T07:02:48.616Z,30.10
2023-02-21T07:05:50.397Z,28.30
2023-02-21T07:08:52.130Z,30.73
2023-02-21T07:11:53.838Z,33.90
2023-02-21T07:14:55.786Z,31.85
2023-02-21T07:17:57.630Z,32.70
2023-02-21T07:20:59.570Z,31.58
2023-02-21T07:24:01.189Z,29.48
2023-02-21T07:27:03.019Z,34.05
2023-02-21T07:30:05.924Z,35.78
2023-02-21T07:33:07.628Z,31.58
2023-02-21T07:36:09.396Z,34.40
2023-02-21T07:39:11.643Z,34.78
2023-02-21T07:42:13.590Z,37.38
2023-02-21T07:45:20.352Z,35.38
2023-02-21T07:48:22.333Z,34.13
2023-02-21T07:51:28.890Z,34.05
2023-02-21T07:54:30.561Z,32.83
2023-02-21T07:57:32.464Z,29.13
2023-02-21T08:00:34.640Z,39.13
2023-02-21T08:03:37.920Z,37.72
2023-02-21T08:06:40.148Z,37.88
2023-02-21T08:09:41.899Z,30.73
2023-02-21T08:12:43.550Z,32.60
2023-02-21T08:15:45.419Z,30.25
2023-02-21T08:18:50.646Z,33.00
2023-02-21T08:21:52.669Z,36.83
2023-02-21T08:24:54.285Z,39.72
2023-02-21T08:27:56.122Z,35.88
2023-02-21T08:30:57.971Z,38.42
2023-02-21T08:33:59.655Z,37.63
2023-02-21T08:37:01.459Z,33.20
2023-02-21T08:40:04.704Z,36.33
2023-02-21T08:43:06.856Z,35.90
2023-02-21T08:46:09.198Z,31.25
2023-02-21T08:49:11.710Z,30.58
2023-02-21T08:52:21.211Z,28.58
2023-02-21T08:55:23.499Z,30.83
2023-02-21T08:58:25.402Z,29.05
2023-02-21T09:01:32.845Z,28.02
2023-02-21T09:04:35.986Z,29.80
2023-02-21T09:07:37.724Z,28.70
2023-02-21T09:10:47.268Z,31.00
2023-02-21T09:13:49.320Z,31.80
2023-02-21T09:16:51.053Z,32.17
2023-02-21T09:19:53.255Z,30.67
2023-02-21T09:22:55.383Z,30.42
2023-02-21T09:25:57.801Z,32.20
2023-02-21T09:28:59.703Z,33.72
2023-02-21T09:32:02.393Z,31.33
2023-02-21T09:35:04.840Z,33.83
2023-02-21T09:38:07.450Z,31.60
2023-02-21T09:41:14.756Z,34.72
2023-02-21T09:44:23.751Z,35.42
2023-02-21T09:47:36.979Z,34.97
2023-02-21T09:50:46.889Z,31.65
2023-02-21T09:53:49.411Z,32.63
2023-02-21T09:56:51.408Z,32.17
2023-02-21T09:59:54.035Z,32.88
2023-02-21T10:03:23.486Z,32.33
2023-02-21T10:06:43.761Z,33.42
2023-02-21T10:09:55.164Z,31.13
2023-02-21T10:13:27.652Z,29.33
2023-02-21T10:16:35.860Z,31.48
2023-02-21T10:19:44.571Z,31.13
2023-02-21T10:22:48.432Z,27.27
2023-02-21T10:25:54.354Z,28.73
2023-02-21T10:28:57.310Z,27.15
2023-02-21T10:32:03.444Z,27.35
2023-02-21T10:35:05.798Z,28.95
2023-02-21T10:38:14.707Z,26.38
2023-02-21T10:41:17.710Z,25.58
2023-02-21T10:44:28.344Z,26.73
2023-02-21T10:47:53.785Z,26.33
2023-02-21T10:51:11.926Z,23.77
2023-02-21T10:54:23.134Z,24.33
2023-02-21T10:57:25.709Z,22.95
2023-02-21T11:00:42.102Z,24.48
2023-02-21T11:03:47.296Z,25.55
2023-02-21T11:06:54.497Z,26.55
2023-02-21T11:09:56.305Z,23.40
2023-02-21T11:13:12.322Z,24.98
2023-02-21T11:16:20.095Z,26.08
2023-02-21T11:19:21.737Z,21.65
2023-02-21T11:22:44.164Z,23.33
2023-02-21T11:25:46.620Z,23.13
2023-02-21T11:28:48.316Z,23.13
2023-02-21T11:31:52.687Z,22.45
2023-02-21T11:35:25.315Z,24.20
2023-02-21T11:39:04.458Z,23.15
2023-02-21T11:42:25.986Z,22.33
2023-02-21T11:45:30.703Z,21.38
2023-02-21T11:48:42.589Z,25.27
2023-02-21T11:52:08.577Z,20.02
2023-02-21T11:55:16.876Z,20.45
2023-02-21T11:58:28.997Z,19.38
2023-02-21T12:01:42.170Z,21.48
2023-02-21T12:05:21.647Z,18.75
2023-02-21T12:08:38.101Z,19.85
2023-02-21T12:11:46.426Z,18.15
2023-02-21T12:15:14.514Z,20.27
2023-02-21T12:18:47.715Z,16.88
2023-02-21T12:22:29.048Z,17.40
2023-02-21T12:26:01.435Z,17.90
2023-02-21T12:29:28.812Z,18.60
2023-02-21T12:32:49.407Z,16.95
2023-02-21T12:36:20.576Z,18.90
2023-02-21T12:40:00.292Z,17.52
2023-02-21T12:43:21.956Z,17.50
2023-02-21T12:46:57.057Z,20.98
2023-02-21T12:50:16.099Z,18.20
2023-02-21T12:53:22.893Z,17.15
2023-02-21T12:56:31.341Z,18.27
2023-02-21T13:00:12.499Z,17.90
2023-02-21T13:03:36.198Z,18.33
2023-02-21T13:06:47.220Z,18.30
2023-02-21T13:09:52.100Z,19.48
2023-02-21T13:13:03.320Z,21.77
2023-02-21T13:16:15.724Z,19.85
2023-02-21T13:19:17.940Z,16.88
2023-02-21T13:22:27.817Z,19.15
2023-02-21T13:26:20.423Z,17.02
2023-02-21T13:29:28.988Z,15.88
2023-02-21T13:32:38.414Z,18.00
2023-02-21T13:35:41.066Z,18.95
2023-02-21T13:38:43.506Z,18.58
2023-02-21T13:41:52.501Z,17.85
2023-02-21T13:45:12.528Z,17.90
2023-02-21T13:48:24.072Z,18.30
2023-02-21T13:51:56.208Z,18.88
2023-02-21T13:55:18.720Z,18.65
2023-02-21T13:58:20.379Z,18.73
2023-02-21T14:01:31.405Z,19.65
2023-02-21T14:08:32.788Z,17.73
2023-02-21T14:11:39.414Z,21.92
2023-02-21T14:14:42.288Z,20.15
2023-02-21T14:17:48.728Z,19.10
2023-02-21T14:20:53.380Z,21.98
2023-02-21T14:24:23.839Z,21.00
2023-02-21T14:27:33.929Z,22.05
2023-02-21T14:30:35.812Z,20.60
2023-02-21T14:33:38.167Z,20.27
2023-02-21T14:36:42.024Z,26.73
2023-02-21T14:39:48.603Z,23.50
2023-02-21T14:43:02.447Z,23.80
2023-02-21T14:46:10.300Z,22.25
2023-02-21T14:49:21.178Z,23.30
2023-02-21T14:52:45.834Z,28.35
2023-02-21T14:56:25.549Z,21.08
2023-02-21T15:00:13.776Z,24.42
2023-02-21T15:03:22.026Z,21.15
2023-02-21T15:06:26.036Z,24.70
2023-02-21T15:09:27.830Z,22.50
2023-02-21T15:12:29.899Z,21.27
2023-02-21T15:15:44.109Z,22.73
2023-02-21T15:19:42.955Z,22.33
2023-02-21T15:22:45.145Z,22.95
2023-02-21T15:26:18.973Z,21.75
2023-02-21T15:29:20.874Z,22.10
2023-02-21T15:32:23.005Z,21.35
2023-02-21T15:35:32.077Z,21.08
2023-02-21T15:39:00.024Z,21.17
2023-02-21T15:42:06.300Z,20.30
2023-02-21T15:45:16.828Z,21.65
2023-02-21T15:48:18.607Z,23.80
2023-02-21T15:51:21.348Z,19.23
2023-02-21T15:54:32.056Z,17.55
2023-02-21T15:57:33.940Z,18.17
2023-02-21T16:00:43.338Z,19.70
2023-02-21T16:03:48.906Z,21.23
2023-02-21T16:06:56.477Z,19.75
2023-02-21T16:10:01.897Z,18.38
2023-02-21T16:13:03.634Z,18.55
2023-02-21T16:16:06.299Z,20.38
2023-02-21T16:19:09.166Z,18.98
2023-02-21T16:22:59.624Z,19.52
2023-02-21T16:26:03.545Z,17.38
2023-02-21T16:29:05.449Z,19.88
2023-02-21T16:32:17.314Z,22.05
2023-02-21T16:35:23.050Z,21.88
2023-02-21T16:38:25.914Z,23.55
2023-02-21T16:41:28.009Z,24.02
2023-02-21T16:44:30.891Z,22.25
2023-02-21T16:47:32.493Z,24.75
2023-02-21T16:50:37.338Z,26.48
2023-02-21T16:53:40.148Z,24.25
2023-02-21T16:56:44.653Z,23.80
2023-02-21T16:59:46.276Z,25.80
2023-02-21T17:02:52.432Z,23.35
2023-02-21T17:05:56.480Z,24.30
2023-02-21T17:08:59.035Z,27.40
2023-02-21T17:12:00.943Z,20.63
2023-02-21T17:15:02.531Z,25.67
2023-02-21T17:18:04.743Z,23.67
2023-02-21T17:21:06.493Z,25.70
2023-02-21T17:24:09.157Z,26.45
2023-02-21T17:27:10.916Z,27.35
2023-02-21T17:30:13.411Z,25.40
2023-02-21T17:33:15.874Z,26.38
2023-02-21T17:36:19.228Z,30.67
2023-02-21T17:39:21.796Z,31.75
2023-02-21T17:42:24.261Z,26.63
2023-02-21T17:45:26.518Z,29.05
2023-02-21T17:48:28.167Z,28.27
2023-02-21T17:51:30.332Z,28.10
2023-02-21T17:54:31.876Z,30.13
2023-02-21T17:57:37.375Z,26.27
2023-02-21T18:00:39.537Z,26.38
2023-02-21T18:03:41.165Z,25.23
2023-02-21T18:06:43.634Z,26.90
2023-02-21T18:09:48.277Z,24.08
2023-02-21T18:12:51.673Z,24.55
2023-02-21T18:15:53.461Z,26.60
2023-02-21T18:18:55.464Z,23.92
2023-02-21T18:21:57.045Z,24.67
2023-02-21T18:24:58.649Z,25.38
2023-02-21T18:28:01.321Z,28.42
2023-02-21T18:31:03.135Z,26.40
2023-02-21T18:34:05.166Z,27.20
2023-02-21T18:37:08.242Z,27.30
2023-02-21T18:40:10.439Z,25.88
2023-02-21T18:43:17.582Z,24.70
2023-02-21T18:46:22.456Z,26.65
2023-02-21T18:49:24.370Z,26.05
2023-02-21T18:52:26.085Z,24.08
2023-02-21T18:55:27.751Z,27.85
2023-02-21T18:58:29.825Z,25.45
2023-02-21T19:01:31.649Z,25.85
2023-02-21T19:04:33.722Z,23.42
2023-02-21T19:07:36.652Z,22.85
2023-02-21T19:10:41.589Z,25.65
2023-02-21T19:13:49.768Z,24.00
2023-02-21T19:16:51.499Z,23.63
2023-02-21T19:19:53.838Z,29.20
2023-02-21T19:22:56.068Z,25.73
2023-02-21T19:25:58.169Z,22.77
2023-02-21T19:28:59.718Z,24.15
2023-02-21T19:32:01.686Z,23.77
2023-02-21T19:35:05.671Z,27.52
2023-02-21T19:38:09.266Z,25.70
2023-02-21T19:41:10.877Z,25.77
2023-02-21T19:44:12.550Z,23.15
2023-02-21T19:47:14.301Z,24.67
2023-02-21T19:50:16.580Z,22.05
2023-02-21T19:53:18.420Z,26.30
2023-02-21T19:56:20.729Z,23.30
2023-02-21T19:59:22.385Z,21.30
2023-02-21T20:02:24.730Z,25.35
2023-02-21T20:05:28.669Z,26.92
2023-02-21T20:08:30.711Z,23.80
2023-02-21T20:11:32.428Z,25.13
2023-02-21T20:14:34.190Z,25.00
2023-02-21T20:17:36.573Z,20.42
2023-02-21T20:20:38.521Z,25.73
2023-02-21T20:23:40.789Z,23.77
2023-02-21T20:26:42.507Z,24.60
2023-02-21T20:29:44.210Z,24.35
2023-02-21T20:32:48.169Z,27.48
2023-02-21T20:35:51.035Z,23.48
2023-02-21T20:38:54.966Z,25.88
2023-02-21T20:42:01.543Z,25.40
2023-02-21T20:45:03.631Z,23.90
2023-02-21T20:48:09.096Z,24.92
2023-02-21T20:51:11.141Z,26.02
2023-02-21T20:54:20.161Z,25.40
2023-02-21T20:57:21.911Z,27.38
2023-02-21T21:00:23.751Z,25.42
2023-02-21T21:03:29.546Z,25.10
2023-02-21T21:06:31.669Z,25.15
2023-02-21T21:09:34.639Z,24.65
2023-02-21T21:12:36.279Z,27.85
2023-02-21T21:15:38.048Z,24.88
2023-02-21T21:18:40.153Z,25.98
2023-02-21T21:21:42.721Z,31.80
2023-02-21T21:24:44.990Z,26.20
2023-02-21T21:27:47.480Z,26.42
2023-02-21T21:30:49.253Z,23.88
2023-02-21T21:33:51.005Z,25.70
2023-02-21T21:36:55.205Z,23.20
2023-02-21T21:39:56.972Z,23.50
2023-02-21T21:42:59.246Z,22.77
2023-02-21T21:46:00.826Z,23.90
2023-02-21T21:49:02.559Z,21.15
2023-02-21T21:52:05.169Z,23.67
2023-02-21T21:55:09.544Z,22.65
2023-02-21T21:58:13.995Z,22.45
2023-02-21T22:01:16.037Z,21.15
2023-02-21T22:04:19.149Z,20.63
2023-02-21T22:07:20.839Z,22.13
2023-02-21T22:10:24.113Z,21.75
2023-02-21T22:13:29.338Z,23.00
2023-02-21T22:16:39.261Z,21.35
2023-02-21T22:19:40.842Z,21.55
2023-02-21T22:22:54.050Z,21.88
2023-02-21T22:25:57.408Z,23.17
2023-02-21T22:28:59.525Z,22.52
2023-02-21T22:32:01.234Z,23.23
2023-02-21T22:35:03.913Z,24.30
2023-02-21T22:38:07.700Z,25.88
2023-02-21T22:41:17.359Z,23.23
2023-02-21T22:44:19.839Z,21.17
2023-02-21T22:47:21.655Z,21.88
2023-02-21T22:50:25.234Z,26.52
2023-02-21T22:53:27.981Z,24.88
2023-02-21T22:56:30.336Z,24.42
2023-02-21T22:59:35.351Z,23.98
2023-02-21T23:02:37.840Z,23.27
2023-02-21T23:05:41.385Z,23.42
2023-02-21T23:08:47.872Z,29.42
2023-02-21T23:11:52.076Z,24.25
2023-02-21T23:14:53.775Z,26.38
2023-02-21T23:17:55.405Z,27.10
2023-02-21T23:20:58.164Z,25.88
2023-02-21T23:24:00.108Z,24.67
2023-02-21T23:27:03.308Z,27.52
2023-02-21T23:30:08.371Z,32.45
2023-02-21T23:33:15.892Z,28.30
2023-02-21T23:36:22.584Z,28.27
2023-02-21T23:39:25.730Z,33.35
2023-02-21T23:42:31.405Z,33.05
2023-02-21T23:45:33.011Z,31.40
2023-02-21T23:48:34.823Z,31.92
2023-02-21T23:51:43.360Z,33.67
2023-02-21T23:54:47.182Z,32.83
2023-02-21T23:57:48.898Z,35.13
